sensor_id;sensor_type;location;lat;lon;timestamp;temperature;humidity
20366;DHT22;10341;49.894;8.822;2022-12-18T00:01:44;-7.90;99.90
20366;DHT22;10341;49.894;8.822;2022-12-18T00:07:03;-8.00;99.90
20366;DHT22;10341;49.894;8.822;2022-12-18T00:12:23;-8.00;99.90
20366;DHT22;10341;49.894;8.822;2022-12-18T00:17:43;-8.00;99.90
20366;DHT22;10341;49.894;8.822;2022-12-18T00:23:02;-8.10;99.90
20366;DHT22;10341;49.894;8.822;2022-12-18T00:28:21;-8.20;99.90
20366;DHT22;10341;49.894;8.822;2022-12-18T00:33:41;-8.30;99.90
20366;DHT22;10341;49.894;8.822;2022-12-18T00:39:04;-8.40;99.90
20366;DHT22;10341;49.894;8.822;2022-12-18T00:44:23;-8.40;99.90
20366;DHT22;10341;49.894;8.822;2022-12-18T00:49:44;-8.40;99.90
20366;DHT22;10341;49.894;8.822;2022-12-18T00:55:03;-8.50;99.90
20366;DHT22;10341;49.894;8.822;2022-12-18T01:00:23;-8.90;99.90
20366;DHT22;10341;49.894;8.822;2022-12-18T01:05:42;-9.30;99.90
20366;DHT22;10341;49.894;8.822;2022-12-18T01:11:08;-9.50;99.90
20366;DHT22;10341;49.894;8.822;2022-12-18T01:16:28;-9.40;99.90
20366;DHT22;10341;49.894;8.822;2022-12-18T01:21:49;-9.40;99.90
20366;DHT22;10341;49.894;8.822;2022-12-18T01:27:09;-9.20;99.90
20366;DHT22;10341;49.894;8.822;2022-12-18T01:32:30;-9.20;99.90
20366;DHT22;10341;49.894;8.822;2022-12-18T01:37:54;-9.10;99.90
20366;DHT22;10341;49.894;8.822;2022-12-18T01:43:16;-9.20;99.90
20366;DHT22;10341;49.894;8.822;2022-12-18T01:48:37;-9.30;99.90
20366;DHT22;10341;49.894;8.822;2022-12-18T01:53:59;-9.30;99.90
20366;DHT22;10341;49.894;8.822;2022-12-18T01:59:18;-9.30;99.90
20366;DHT22;10341;49.894;8.822;2022-12-18T02:04:38;-9.20;99.90
20366;DHT22;10341;49.894;8.822;2022-12-18T02:10:13;-9.30;99.90
20366;DHT22;10341;49.894;8.822;2022-12-18T02:21:17;-9.50;99.90
20366;DHT22;10341;49.894;8.822;2022-12-18T02:27:00;-9.60;99.90
20366;DHT22;10341;49.894;8.822;2022-12-18T02:32:30;-9.70;99.90
20366;DHT22;10341;49.894;8.822;2022-12-18T02:37:53;-9.60;99.90
20366;DHT22;10341;49.894;8.822;2022-12-18T02:43:15;-9.70;99.90
20366;DHT22;10341;49.894;8.822;2022-12-18T02:48:36;-9.70;99.90
20366;DHT22;10341;49.894;8.822;2022-12-18T02:54:09;-9.70;99.90
20366;DHT22;10341;49.894;8.822;2022-12-18T02:59:40;-9.70;99.90
20366;DHT22;10341;49.894;8.822;2022-12-18T03:05:10;-9.90;99.90
20366;DHT22;10341;49.894;8.822;2022-12-18T03:10:33;-9.90;99.90
20366;DHT22;10341;49.894;8.822;2022-12-18T03:15:56;-9.80;99.90
20366;DHT22;10341;49.894;8.822;2022-12-18T03:21:22;-10.00;99.90
20366;DHT22;10341;49.894;8.822;2022-12-18T03:26:46;-10.00;99.90
20366;DHT22;10341;49.894;8.822;2022-12-18T03:32:10;-9.90;99.90
20366;DHT22;10341;49.894;8.822;2022-12-18T03:37:31;-10.10;99.90
20366;DHT22;10341;49.894;8.822;2022-12-18T03:42:55;-10.20;99.90
20366;DHT22;10341;49.894;8.822;2022-12-18T03:48:31;-10.20;99.90
20366;DHT22;10341;49.894;8.822;2022-12-18T03:54:02;-10.20;99.90
20366;DHT22;10341;49.894;8.822;2022-12-18T03:59:28;-10.10;99.90
20366;DHT22;10341;49.894;8.822;2022-12-18T04:04:55;-10.10;99.90
20366;DHT22;10341;49.894;8.822;2022-12-18T04:10:17;-10.10;99.90
20366;DHT22;10341;49.894;8.822;2022-12-18T04:15:38;-10.20;99.90
20366;DHT22;10341;49.894;8.822;2022-12-18T04:21:03;-10.30;99.90
20366;DHT22;10341;49.894;8.822;2022-12-18T04:26:22;-10.20;99.90
20366;DHT22;10341;49.894;8.822;2022-12-18T04:32:05;-10.30;99.90
20366;DHT22;10341;49.894;8.822;2022-12-18T04:37:25;-10.30;99.90
20366;DHT22;10341;49.894;8.822;2022-12-18T04:42:45;-10.30;99.90
20366;DHT22;10341;49.894;8.822;2022-12-18T04:48:05;-10.40;99.90
20366;DHT22;10341;49.894;8.822;2022-12-18T04:53:24;-10.40;99.90
20366;DHT22;10341;49.894;8.822;2022-12-18T04:58:44;-10.50;99.90
20366;DHT22;10341;49.894;8.822;2022-12-18T05:04:04;-10.60;99.90
20366;DHT22;10341;49.894;8.822;2022-12-18T05:09:23;-10.70;99.90
20366;DHT22;10341;49.894;8.822;2022-12-18T05:14:42;-10.70;99.90
20366;DHT22;10341;49.894;8.822;2022-12-18T05:20:02;-10.70;99.90
20366;DHT22;10341;49.894;8.822;2022-12-18T05:25:22;-10.80;99.90
20366;DHT22;10341;49.894;8.822;2022-12-18T05:30:42;-10.70;99.90
20366;DHT22;10341;49.894;8.822;2022-12-18T05:36:03;-10.60;99.90
20366;DHT22;10341;49.894;8.822;2022-12-18T05:41:23;-10.50;99.90
20366;DHT22;10341;49.894;8.822;2022-12-18T05:46:42;-10.40;99.90
20366;DHT22;10341;49.894;8.822;2022-12-18T05:52:02;-10.40;99.90
20366;DHT22;10341;49.894;8.822;2022-12-18T05:57:22;-10.40;99.90
20366;DHT22;10341;49.894;8.822;2022-12-18T06:02:41;-10.40;99.90
20366;DHT22;10341;49.894;8.822;2022-12-18T06:08:01;-10.50;99.90
20366;DHT22;10341;49.894;8.822;2022-12-18T06:13:21;-10.40;99.90
20366;DHT22;10341;49.894;8.822;2022-12-18T06:18:40;-10.30;99.90
20366;DHT22;10341;49.894;8.822;2022-12-18T06:24:00;-10.10;99.90
20366;DHT22;10341;49.894;8.822;2022-12-18T06:29:20;-10.00;99.90
20366;DHT22;10341;49.894;8.822;2022-12-18T06:34:40;-9.80;99.90
20366;DHT22;10341;49.894;8.822;2022-12-18T06:39:59;-9.70;99.90
20366;DHT22;10341;49.894;8.822;2022-12-18T06:45:20;-9.70;99.90
20366;DHT22;10341;49.894;8.822;2022-12-18T06:50:42;-9.60;99.90
20366;DHT22;10341;49.894;8.822;2022-12-18T06:56:03;-9.80;99.90
20366;DHT22;10341;49.894;8.822;2022-12-18T07:01:22;-9.80;99.90
20366;DHT22;10341;49.894;8.822;2022-12-18T07:06:43;-9.70;99.90
20366;DHT22;10341;49.894;8.822;2022-12-18T07:12:02;-9.70;99.90
20366;DHT22;10341;49.894;8.822;2022-12-18T07:17:24;-9.60;99.90
20366;DHT22;10341;49.894;8.822;2022-12-18T07:22:43;-9.40;99.90
20366;DHT22;10341;49.894;8.822;2022-12-18T07:28:03;-9.30;99.90
20366;DHT22;10341;49.894;8.822;2022-12-18T07:33:23;-9.20;99.90
20366;DHT22;10341;49.894;8.822;2022-12-18T07:38:43;-9.10;99.90
20366;DHT22;10341;49.894;8.822;2022-12-18T07:44:05;-8.90;99.90
20366;DHT22;10341;49.894;8.822;2022-12-18T07:49:24;-8.70;99.90
20366;DHT22;10341;49.894;8.822;2022-12-18T07:54:43;-7.80;99.90
20366;DHT22;10341;49.894;8.822;2022-12-18T08:00:03;-6.40;99.90
20366;DHT22;10341;49.894;8.822;2022-12-18T08:05:31;-5.10;99.90
20366;DHT22;10341;49.894;8.822;2022-12-18T08:10:51;-4.30;99.90
20366;DHT22;10341;49.894;8.822;2022-12-18T08:16:10;-3.30;99.90
20366;DHT22;10341;49.894;8.822;2022-12-18T08:21:31;-2.50;99.90
20366;DHT22;10341;49.894;8.822;2022-12-18T08:26:50;-2.10;99.90
20366;DHT22;10341;49.894;8.822;2022-12-18T08:32:09;-1.30;99.90
20366;DHT22;10341;49.894;8.822;2022-12-18T08:37:29;-0.40;99.90
20366;DHT22;10341;49.894;8.822;2022-12-18T08:42:48;0.10;99.90
20366;DHT22;10341;49.894;8.822;2022-12-18T08:48:27;0.90;99.90
20366;DHT22;10341;49.894;8.822;2022-12-18T08:53:46;1.60;99.90
20366;DHT22;10341;49.894;8.822;2022-12-18T08:59:06;0.30;99.90
20366;DHT22;10341;49.894;8.822;2022-12-18T09:04:25;0.20;99.90
20366;DHT22;10341;49.894;8.822;2022-12-18T09:09:45;-0.40;99.90
20366;DHT22;10341;49.894;8.822;2022-12-18T09:15:05;-0.40;99.90
20366;DHT22;10341;49.894;8.822;2022-12-18T09:20:25;-0.20;99.90
20366;DHT22;10341;49.894;8.822;2022-12-18T09:25:47;-0.10;99.90
20366;DHT22;10341;49.894;8.822;2022-12-18T09:31:08;0.80;99.90
20366;DHT22;10341;49.894;8.822;2022-12-18T09:36:28;0.20;99.90
20366;DHT22;10341;49.894;8.822;2022-12-18T09:41:53;0.30;99.90
20366;DHT22;10341;49.894;8.822;2022-12-18T09:47:20;1.00;99.90
20366;DHT22;10341;49.894;8.822;2022-12-18T09:52:48;0.50;99.90
20366;DHT22;10341;49.894;8.822;2022-12-18T09:58:17;0.80;99.90
20366;DHT22;10341;49.894;8.822;2022-12-18T10:03:38;1.10;99.90
20366;DHT22;10341;49.894;8.822;2022-12-18T10:14:41;1.10;99.90
20366;DHT22;10341;49.894;8.822;2022-12-18T10:30:58;0.00;99.90
20366;DHT22;10341;49.894;8.822;2022-12-18T10:36:17;0.00;99.90
20366;DHT22;10341;49.894;8.822;2022-12-18T10:41:37;0.50;99.90
20366;DHT22;10341;49.894;8.822;2022-12-18T10:47:03;0.30;99.90
20366;DHT22;10341;49.894;8.822;2022-12-18T10:52:25;-1.00;99.90
20366;DHT22;10341;49.894;8.822;2022-12-18T10:57:44;-0.70;99.90
20366;DHT22;10341;49.894;8.822;2022-12-18T11:09:05;-0.50;99.90
20366;DHT22;10341;49.894;8.822;2022-12-18T11:14:43;-0.50;99.90
20366;DHT22;10341;49.894;8.822;2022-12-18T11:20:05;-0.30;99.90
20366;DHT22;10341;49.894;8.822;2022-12-18T11:25:28;0.40;99.90
20366;DHT22;10341;49.894;8.822;2022-12-18T11:30:48;0.90;99.90
20366;DHT22;10341;49.894;8.822;2022-12-18T11:36:09;0.50;99.90
20366;DHT22;10341;49.894;8.822;2022-12-18T11:41:38;0.00;99.90
20366;DHT22;10341;49.894;8.822;2022-12-18T11:47:24;0.60;99.90
20366;DHT22;10341;49.894;8.822;2022-12-18T11:52:45;-0.10;99.90
20366;DHT22;10341;49.894;8.822;2022-12-18T11:58:08;0.50;99.90
20366;DHT22;10341;49.894;8.822;2022-12-18T12:15:06;-0.40;99.90
20366;DHT22;10341;49.894;8.822;2022-12-18T12:26:30;-1.10;99.90
20366;DHT22;10341;49.894;8.822;2022-12-18T12:43:42;-1.80;99.90
20366;DHT22;10341;49.894;8.822;2022-12-18T12:49:04;-2.10;99.90
20366;DHT22;10341;49.894;8.822;2022-12-18T12:54:26;-2.20;99.90
20366;DHT22;10341;49.894;8.822;2022-12-18T12:59:57;-2.40;99.90
20366;DHT22;10341;49.894;8.822;2022-12-18T13:05:38;-2.20;99.90
20366;DHT22;10341;49.894;8.822;2022-12-18T13:11:00;-2.10;99.90
20366;DHT22;10341;49.894;8.822;2022-12-18T13:16:38;-2.30;99.90
20366;DHT22;10341;49.894;8.822;2022-12-18T13:21:58;-2.10;99.90
20366;DHT22;10341;49.894;8.822;2022-12-18T13:38:35;-2.30;99.90
20366;DHT22;10341;49.894;8.822;2022-12-18T13:43:56;-2.30;99.90
20366;DHT22;10341;49.894;8.822;2022-12-18T13:49:20;-2.30;99.90
20366;DHT22;10341;49.894;8.822;2022-12-18T13:54:42;-2.20;99.90
20366;DHT22;10341;49.894;8.822;2022-12-18T14:00:27;-2.30;99.90
20366;DHT22;10341;49.894;8.822;2022-12-18T14:05:58;-2.20;99.90
20366;DHT22;10341;49.894;8.822;2022-12-18T14:11:22;-2.40;99.90
20366;DHT22;10341;49.894;8.822;2022-12-18T14:16:42;-2.50;99.90
20366;DHT22;10341;49.894;8.822;2022-12-18T14:22:03;-2.40;99.90
20366;DHT22;10341;49.894;8.822;2022-12-18T14:27:25;-2.50;99.90
20366;DHT22;10341;49.894;8.822;2022-12-18T14:33:44;-2.40;99.90
20366;DHT22;10341;49.894;8.822;2022-12-18T14:38:39;-2.40;99.90
20366;DHT22;10341;49.894;8.822;2022-12-18T14:44:05;-2.50;99.90
20366;DHT22;10341;49.894;8.822;2022-12-18T14:49:33;-2.60;99.90
20366;DHT22;10341;49.894;8.822;2022-12-18T14:54:53;-2.50;99.90
20366;DHT22;10341;49.894;8.822;2022-12-18T15:00:19;-2.60;99.90
20366;DHT22;10341;49.894;8.822;2022-12-18T15:05:39;-2.60;99.90
20366;DHT22;10341;49.894;8.822;2022-12-18T15:10:58;-2.70;99.90
20366;DHT22;10341;49.894;8.822;2022-12-18T15:16:18;-2.80;99.90
20366;DHT22;10341;49.894;8.822;2022-12-18T15:21:38;-2.80;99.90
20366;DHT22;10341;49.894;8.822;2022-12-18T15:27:01;-2.80;99.90
20366;DHT22;10341;49.894;8.822;2022-12-18T15:32:21;-2.90;99.90
20366;DHT22;10341;49.894;8.822;2022-12-18T15:37:41;-2.90;99.90
20366;DHT22;10341;49.894;8.822;2022-12-18T15:43:01;-2.90;99.90
20366;DHT22;10341;49.894;8.822;2022-12-18T15:48:54;-2.90;99.90
20366;DHT22;10341;49.894;8.822;2022-12-18T15:54:14;-3.00;99.90
20366;DHT22;10341;49.894;8.822;2022-12-18T15:59:35;-3.00;99.90
20366;DHT22;10341;49.894;8.822;2022-12-18T16:04:55;-3.00;99.90
20366;DHT22;10341;49.894;8.822;2022-12-18T16:10:14;-3.10;99.90
20366;DHT22;10341;49.894;8.822;2022-12-18T16:15:34;-3.10;99.90
20366;DHT22;10341;49.894;8.822;2022-12-18T16:20:54;-3.10;99.90
20366;DHT22;10341;49.894;8.822;2022-12-18T16:26:14;-3.20;99.90
20366;DHT22;10341;49.894;8.822;2022-12-18T16:31:34;-3.20;99.90
20366;DHT22;10341;49.894;8.822;2022-12-18T16:36:57;-3.20;99.90
20366;DHT22;10341;49.894;8.822;2022-12-18T16:42:19;-3.10;99.90
20366;DHT22;10341;49.894;8.822;2022-12-18T16:47:39;-3.20;99.90
20366;DHT22;10341;49.894;8.822;2022-12-18T16:52:59;-3.20;99.90
20366;DHT22;10341;49.894;8.822;2022-12-18T16:58:18;-3.20;99.90
20366;DHT22;10341;49.894;8.822;2022-12-18T17:03:38;-3.20;99.90
20366;DHT22;10341;49.894;8.822;2022-12-18T17:08:59;-3.20;99.90
20366;DHT22;10341;49.894;8.822;2022-12-18T17:14:22;-3.20;99.90
20366;DHT22;10341;49.894;8.822;2022-12-18T17:19:42;-3.20;99.90
20366;DHT22;10341;49.894;8.822;2022-12-18T17:25:02;-3.20;99.90
20366;DHT22;10341;49.894;8.822;2022-12-18T17:30:21;-3.10;99.90
20366;DHT22;10341;49.894;8.822;2022-12-18T17:35:41;-3.20;99.90
20366;DHT22;10341;49.894;8.822;2022-12-18T17:41:06;-3.10;99.90
20366;DHT22;10341;49.894;8.822;2022-12-18T17:46:27;-3.20;99.90
20366;DHT22;10341;49.894;8.822;2022-12-18T17:51:47;-3.10;99.90
20366;DHT22;10341;49.894;8.822;2022-12-18T17:57:07;-3.10;99.90
20366;DHT22;10341;49.894;8.822;2022-12-18T18:02:26;-3.00;99.90
20366;DHT22;10341;49.894;8.822;2022-12-18T18:07:46;-2.90;99.90
20366;DHT22;10341;49.894;8.822;2022-12-18T18:13:18;-2.80;99.90
20366;DHT22;10341;49.894;8.822;2022-12-18T18:18:58;-2.70;99.90
20366;DHT22;10341;49.894;8.822;2022-12-18T18:24:20;-2.60;99.90
20366;DHT22;10341;49.894;8.822;2022-12-18T18:29:41;-2.60;99.90
20366;DHT22;10341;49.894;8.822;2022-12-18T18:35:00;-2.50;99.90
20366;DHT22;10341;49.894;8.822;2022-12-18T18:40:19;-2.50;99.90
20366;DHT22;10341;49.894;8.822;2022-12-18T18:45:39;-2.50;99.90
20366;DHT22;10341;49.894;8.822;2022-12-18T18:51:04;-2.40;99.90
20366;DHT22;10341;49.894;8.822;2022-12-18T18:56:24;-2.40;99.90
20366;DHT22;10341;49.894;8.822;2022-12-18T19:01:45;-2.40;99.90
20366;DHT22;10341;49.894;8.822;2022-12-18T19:07:05;-2.30;99.90
20366;DHT22;10341;49.894;8.822;2022-12-18T19:12:25;-2.40;99.90
20366;DHT22;10341;49.894;8.822;2022-12-18T19:18:03;-2.40;99.90
20366;DHT22;10341;49.894;8.822;2022-12-18T19:23:23;-2.30;99.90
20366;DHT22;10341;49.894;8.822;2022-12-18T19:28:43;-2.30;99.90
20366;DHT22;10341;49.894;8.822;2022-12-18T19:34:05;-2.30;99.90
20366;DHT22;10341;49.894;8.822;2022-12-18T19:39:25;-2.30;99.90
20366;DHT22;10341;49.894;8.822;2022-12-18T19:44:44;-2.30;99.90
20366;DHT22;10341;49.894;8.822;2022-12-18T19:50:04;-2.30;99.90
20366;DHT22;10341;49.894;8.822;2022-12-18T19:55:24;-2.20;99.90
20366;DHT22;10341;49.894;8.822;2022-12-18T20:00:44;-2.20;99.90
20366;DHT22;10341;49.894;8.822;2022-12-18T20:06:19;-2.20;99.90
20366;DHT22;10341;49.894;8.822;2022-12-18T20:11:39;-2.20;99.90
20366;DHT22;10341;49.894;8.822;2022-12-18T20:16:59;-2.20;99.90
20366;DHT22;10341;49.894;8.822;2022-12-18T20:22:18;-2.20;99.90
20366;DHT22;10341;49.894;8.822;2022-12-18T20:27:38;-2.20;99.90
20366;DHT22;10341;49.894;8.822;2022-12-18T20:32:57;-2.20;99.90
20366;DHT22;10341;49.894;8.822;2022-12-18T20:38:17;-2.30;99.90
20366;DHT22;10341;49.894;8.822;2022-12-18T20:43:37;-2.30;99.90
20366;DHT22;10341;49.894;8.822;2022-12-18T20:48:56;-2.40;99.90
20366;DHT22;10341;49.894;8.822;2022-12-18T20:54:16;-2.50;99.90
20366;DHT22;10341;49.894;8.822;2022-12-18T20:59:35;-2.50;99.90
20366;DHT22;10341;49.894;8.822;2022-12-18T21:04:55;-2.40;99.90
20366;DHT22;10341;49.894;8.822;2022-12-18T21:10:14;-2.40;99.90
20366;DHT22;10341;49.894;8.822;2022-12-18T21:15:34;-2.30;99.90
20366;DHT22;10341;49.894;8.822;2022-12-18T21:20:54;-2.20;99.90
20366;DHT22;10341;49.894;8.822;2022-12-18T21:26:15;-2.20;99.90
20366;DHT22;10341;49.894;8.822;2022-12-18T21:31:36;-2.10;99.90
20366;DHT22;10341;49.894;8.822;2022-12-18T21:36:58;-2.10;99.90
20366;DHT22;10341;49.894;8.822;2022-12-18T21:42:18;-2.10;99.90
20366;DHT22;10341;49.894;8.822;2022-12-18T21:47:56;-2.10;99.90
20366;DHT22;10341;49.894;8.822;2022-12-18T21:53:15;-2.00;99.90
20366;DHT22;10341;49.894;8.822;2022-12-18T21:58:34;-2.00;99.90
20366;DHT22;10341;49.894;8.822;2022-12-18T22:03:54;-2.00;99.90
20366;DHT22;10341;49.894;8.822;2022-12-18T22:09:16;-2.00;99.90
20366;DHT22;10341;49.894;8.822;2022-12-18T22:14:36;-2.00;99.90
20366;DHT22;10341;49.894;8.822;2022-12-18T22:19:55;-2.00;99.90
20366;DHT22;10341;49.894;8.822;2022-12-18T22:25:14;-2.10;99.90
20366;DHT22;10341;49.894;8.822;2022-12-18T22:30:34;-2.10;99.90
20366;DHT22;10341;49.894;8.822;2022-12-18T22:35:54;-2.10;99.90
20366;DHT22;10341;49.894;8.822;2022-12-18T22:41:13;-2.10;99.90
20366;DHT22;10341;49.894;8.822;2022-12-18T22:46:39;-2.00;99.90
20366;DHT22;10341;49.894;8.822;2022-12-18T22:52:00;-2.00;99.90
20366;DHT22;10341;49.894;8.822;2022-12-18T22:57:20;-2.00;99.90
20366;DHT22;10341;49.894;8.822;2022-12-18T23:02:39;-2.00;99.90
20366;DHT22;10341;49.894;8.822;2022-12-18T23:07:59;-2.00;99.90
20366;DHT22;10341;49.894;8.822;2022-12-18T23:13:18;-1.90;99.90
20366;DHT22;10341;49.894;8.822;2022-12-18T23:18:38;-1.90;99.90
20366;DHT22;10341;49.894;8.822;2022-12-18T23:23:57;-1.90;99.90
20366;DHT22;10341;49.894;8.822;2022-12-18T23:29:17;-1.90;99.90
20366;DHT22;10341;49.894;8.822;2022-12-18T23:34:36;-1.80;99.90
20366;DHT22;10341;49.894;8.822;2022-12-18T23:39:56;-1.90;99.90
20366;DHT22;10341;49.894;8.822;2022-12-18T23:45:16;-1.90;99.90
20366;DHT22;10341;49.894;8.822;2022-12-18T23:50:36;-1.90;99.90
20366;DHT22;10341;49.894;8.822;2022-12-18T23:55:55;-1.90;99.90
